Guarinos, Brazil
Current Conditions -  °F | °C
As of 12:00 AM on Saturday 25 Oct 2014 (Local Time) from SBAN Reporting Station
Broken Clouds Broken Clouds  
Wind Chill: 72°   Ceiling: 9000
Heat Index: 72°   Visibility: 6mi
Dew Point: 61°   Wind: 6mph
Humidity: 69%   Direction: 210°SSW
Pressure: 30.06"   Gusts: NA
Location:  14.65°S, 49.73°W
Report Text: SBAN 250200Z 21005KT 9999 FEW035 BKN090 22/16 Q1018
Loading
Personal Weather Stations






























Interactive Weather Map
Tropical Storm Tracking
New forecast layout! Learn more

10-Day Weather Forecast

Advertisements
Track Severe Weather on mobile